createdAt,value
2018-02-16T00:00:56.982Z,50.63
2018-02-16T00:03:25.228Z,50.43
2018-02-16T00:05:52.688Z,53.43
2018-02-16T00:08:20.158Z,55.70
2018-02-16T00:10:47.618Z,52.27
2018-02-16T00:13:15.092Z,54.73
2018-02-16T00:15:43.331Z,61.67
2018-02-16T00:18:10.822Z,55.57
2018-02-16T00:20:38.296Z,55.43
2018-02-16T00:23:05.782Z,58.20
2018-02-16T00:25:33.294Z,57.80
2018-02-16T00:28:01.658Z,56.67
2018-02-16T00:30:29.129Z,59.80
2018-02-16T00:32:57.362Z,60.90
2018-02-16T00:35:24.832Z,60.70
2018-02-16T00:37:52.310Z,56.63
2018-02-16T00:40:19.762Z,63.50
2018-02-16T00:42:47.246Z,58.97
2018-02-16T00:45:14.706Z,55.53
2018-02-16T00:47:42.190Z,58.63
2018-02-16T00:50:09.654Z,56.30
2018-02-16T00:52:37.122Z,58.53
2018-02-16T00:55:04.951Z,54.70
2018-02-16T00:57:32.397Z,55.47
2018-02-16T00:59:59.863Z,56.53
2018-02-16T01:02:27.480Z,54.67
2018-02-16T01:04:54.948Z,54.00
2018-02-16T01:07:22.402Z,58.87
2018-02-16T01:09:49.939Z,52.27
2018-02-16T01:12:17.408Z,62.00
2018-02-16T01:14:44.888Z,56.77
2018-02-16T01:17:13.113Z,55.10
2018-02-16T01:19:41.349Z,54.67
2018-02-16T01:22:08.810Z,57.57
2018-02-16T01:24:36.295Z,53.93
2018-02-16T01:27:03.772Z,55.17
2018-02-16T01:29:31.234Z,52.10
2018-02-16T01:31:58.698Z,53.27
2018-02-16T01:34:26.154Z,49.30
2018-02-16T01:36:53.627Z,53.33
2018-02-16T01:39:21.103Z,50.77
2018-02-16T01:41:48.618Z,48.67
2018-02-16T01:44:16.078Z,52.03
2018-02-16T01:46:43.555Z,51.23
2018-02-16T01:49:11.021Z,55.07
2018-02-16T01:51:38.486Z,54.93
2018-02-16T01:54:05.944Z,52.77
2018-02-16T01:56:33.448Z,50.60
2018-02-16T01:59:00.926Z,50.93
2018-02-16T02:01:28.386Z,52.77
2018-02-16T02:03:55.838Z,52.77
2018-02-16T02:06:23.308Z,59.30
2018-02-16T02:08:50.768Z,54.27
2018-02-16T02:11:18.245Z,54.53
2018-02-16T02:13:45.691Z,54.27
2018-02-16T02:16:13.926Z,48.97
2018-02-16T02:18:41.392Z,53.03
2018-02-16T02:21:08.890Z,55.40
2018-02-16T02:23:36.362Z,55.47
2018-02-16T02:26:03.815Z,52.17
2018-02-16T02:28:31.481Z,53.37
2018-02-16T02:30:58.944Z,56.53
2018-02-16T02:33:26.427Z,57.47
2018-02-16T02:35:53.895Z,55.30
2018-02-16T02:38:22.874Z,56.20
2018-02-16T02:40:50.334Z,55.23
2018-02-16T02:43:17.808Z,52.80
2018-02-16T02:45:45.272Z,52.73
2018-02-16T02:48:12.745Z,53.20
2018-02-16T02:50:40.194Z,48.47
2018-02-16T02:53:07.684Z,55.90
2018-02-16T02:55:35.155Z,52.40
2018-02-16T02:58:02.607Z,51.13
2018-02-16T03:00:30.079Z,53.07
2018-02-16T03:02:57.550Z,54.97
2018-02-16T03:05:25.023Z,61.73
2018-02-16T03:07:52.491Z,52.53
2018-02-16T03:10:20.718Z,57.27
2018-02-16T03:12:48.182Z,51.00
2018-02-16T03:15:15.670Z,56.03
2018-02-16T03:17:43.122Z,53.63
2018-02-16T03:20:10.653Z,53.47
2018-02-16T03:22:38.105Z,52.13
2018-02-16T03:25:05.562Z,53.33
2018-02-16T03:27:33.021Z,54.70
2018-02-16T03:30:00.488Z,60.33
2018-02-16T03:32:27.935Z,55.40
2018-02-16T03:34:55.399Z,57.87
2018-02-16T03:37:22.853Z,53.77
2018-02-16T03:39:50.313Z,58.77
2018-02-16T03:42:17.785Z,57.37
2018-02-16T03:44:45.267Z,56.33
2018-02-16T03:47:13.493Z,54.93
2018-02-16T03:49:40.984Z,52.23
2018-02-16T03:52:08.442Z,54.27
2018-02-16T03:54:35.901Z,56.17
2018-02-16T03:57:03.374Z,52.07
2018-02-16T03:59:30.827Z,54.20
2018-02-16T04:01:58.293Z,52.70
2018-02-16T04:04:25.746Z,57.87
2018-02-16T04:06:53.202Z,49.03
2018-02-16T04:09:20.662Z,58.10
2018-02-16T04:11:48.118Z,52.07
2018-02-16T04:14:15.578Z,56.20
2018-02-16T04:16:43.048Z,55.13
2018-02-16T04:19:10.489Z,58.30
2018-02-16T04:21:37.952Z,57.70
2018-02-16T04:24:05.408Z,62.80
2018-02-16T04:26:32.897Z,60.10
2018-02-16T04:29:00.339Z,60.57
2018-02-16T04:31:27.793Z,60.83
2018-02-16T04:33:55.262Z,58.27
2018-02-16T04:36:22.719Z,57.77
2018-02-16T04:38:50.181Z,59.30
2018-02-16T04:41:17.637Z,61.53
2018-02-16T04:43:45.114Z,65.20
2018-02-16T04:46:12.572Z,63.90
2018-02-16T04:48:40.026Z,65.83
2018-02-16T04:51:07.485Z,67.97
2018-02-16T04:53:34.949Z,62.20
2018-02-16T04:56:02.454Z,58.70
2018-02-16T04:58:29.926Z,58.00
2018-02-16T05:00:57.446Z,65.07
2018-02-16T05:03:24.872Z,60.83
2018-02-16T05:05:52.333Z,60.23
2018-02-16T05:08:19.817Z,65.83
2018-02-16T05:10:48.048Z,66.80
2018-02-16T05:13:15.503Z,71.00
2018-02-16T05:15:42.963Z,63.13
2018-02-16T05:18:10.414Z,62.17
2018-02-16T05:20:37.879Z,63.27
2018-02-16T05:23:05.343Z,62.67
2018-02-16T05:25:32.842Z,60.93
2018-02-16T05:28:00.315Z,60.47
2018-02-16T05:30:27.776Z,57.17
2018-02-16T05:32:55.232Z,59.87
2018-02-16T05:35:22.685Z,56.63
2018-02-16T05:37:50.150Z,61.63
2018-02-16T05:40:17.633Z,56.97
2018-02-16T05:42:45.086Z,59.77
2018-02-16T05:45:12.546Z,55.97
2018-02-16T05:47:40.008Z,55.27
2018-02-16T05:50:07.462Z,61.43
2018-02-16T05:52:35.006Z,61.67
2018-02-16T05:55:02.505Z,66.40
2018-02-16T05:57:29.960Z,58.07
2018-02-16T05:59:57.457Z,59.93
2018-02-16T06:02:24.926Z,60.23
2018-02-16T06:04:52.380Z,60.23
2018-02-16T06:07:19.833Z,66.47
2018-02-16T06:09:47.294Z,57.07
2018-02-16T06:12:14.762Z,63.80
2018-02-16T06:14:42.231Z,60.17
2018-02-16T06:17:09.694Z,61.70
2018-02-16T06:19:37.178Z,62.43
2018-02-16T06:22:05.445Z,70.03
2018-02-16T06:24:32.912Z,67.73
2018-02-16T06:27:00.365Z,84.87
2018-02-16T06:29:27.817Z,70.30
2018-02-16T06:31:55.280Z,77.43
2018-02-16T06:34:22.738Z,65.20
2018-02-16T06:36:50.196Z,68.07
2018-02-16T06:39:18.422Z,71.10
2018-02-16T06:41:45.894Z,73.40
2018-02-16T06:44:13.349Z,70.07
2018-02-16T06:46:40.809Z,59.93
2018-02-16T06:49:08.273Z,61.53
2018-02-16T06:51:35.729Z,65.67
2018-02-16T06:54:03.190Z,66.17
2018-02-16T06:56:30.645Z,81.63
2018-02-16T06:58:58.106Z,67.57
2018-02-16T07:01:25.560Z,52.87
2018-02-16T07:03:53.017Z,62.50
2018-02-16T07:06:20.469Z,50.00
2018-02-16T07:08:47.929Z,53.63
2018-02-16T07:11:15.378Z,54.10
2018-02-16T07:13:42.846Z,64.23
2018-02-16T07:16:10.302Z,51.60
2018-02-16T07:18:37.761Z,46.70
2018-02-16T07:21:05.274Z,52.47
2018-02-16T07:23:33.489Z,48.97
2018-02-16T07:26:00.929Z,49.60
2018-02-16T07:28:28.395Z,40.43
2018-02-16T07:30:55.862Z,35.17
2018-02-16T07:33:24.088Z,30.37
2018-02-16T07:35:51.735Z,27.23
2018-02-16T07:38:19.177Z,26.43
2018-02-16T07:40:46.637Z,27.43
2018-02-16T07:43:14.089Z,26.63
2018-02-16T07:45:41.567Z,35.07
2018-02-16T07:48:09.011Z,29.40
2018-02-16T07:50:36.537Z,31.30
2018-02-16T07:53:03.996Z,26.10
2018-02-16T07:55:31.505Z,36.97
2018-02-16T07:57:59.706Z,27.53
2018-02-16T08:00:27.196Z,32.43
2018-02-16T08:02:55.442Z,46.27
2018-02-16T08:05:22.897Z,32.50
2018-02-16T08:07:50.358Z,26.00
2018-02-16T08:10:17.829Z,22.67
2018-02-16T08:12:46.224Z,23.33
2018-02-16T08:15:13.678Z,23.60
2018-02-16T08:17:41.135Z,25.30
2018-02-16T08:20:09.357Z,26.40
2018-02-16T08:22:36.813Z,22.17
2018-02-16T08:25:04.289Z,25.73
2018-02-16T08:27:31.757Z,24.63
2018-02-16T08:29:59.213Z,21.53
2018-02-16T08:32:26.698Z,20.90
2018-02-16T08:34:55.066Z,23.33
2018-02-16T08:37:22.538Z,25.17
2018-02-16T08:39:49.994Z,25.20
2018-02-16T08:42:17.455Z,26.33
2018-02-16T08:44:44.903Z,24.47
2018-02-16T08:47:12.362Z,26.10
2018-02-16T08:49:39.818Z,28.50
2018-02-16T08:52:07.291Z,26.90
2018-02-16T08:54:34.743Z,26.63
2018-02-16T08:57:02.214Z,28.23
2018-02-16T08:59:29.739Z,26.60
2018-02-16T09:01:57.324Z,24.87
2018-02-16T09:04:24.765Z,25.57
2018-02-16T09:06:52.248Z,24.77
2018-02-16T09:09:19.708Z,26.03
2018-02-16T09:11:47.167Z,27.00
2018-02-16T09:14:14.625Z,26.30
2018-02-16T09:16:42.117Z,32.47
2018-02-16T09:19:14.402Z,29.97
2018-02-16T09:21:42.626Z,25.10
2018-02-16T09:24:10.994Z,33.47
2018-02-16T09:26:38.457Z,26.00
2018-02-16T09:29:05.925Z,26.00
2018-02-16T09:31:33.559Z,29.60
2018-02-16T09:34:01.019Z,27.27
2018-02-16T09:36:28.473Z,28.27
2018-02-16T09:38:57.495Z,32.13
2018-02-16T09:41:24.977Z,27.67
2018-02-16T09:43:52.446Z,24.07
2018-02-16T09:46:19.936Z,29.57
2018-02-16T09:48:47.600Z,29.00
2018-02-16T09:51:15.362Z,28.73
2018-02-16T09:53:42.831Z,25.33
2018-02-16T09:56:14.058Z,30.03
2018-02-16T09:58:41.523Z,29.53
2018-02-16T10:01:08.981Z,27.97
2018-02-16T10:03:36.445Z,35.03
2018-02-16T10:06:03.922Z,27.90
2018-02-16T10:08:31.366Z,28.23
2018-02-16T10:10:58.827Z,25.47
2018-02-16T10:13:26.271Z,28.53
2018-02-16T10:15:53.738Z,26.40
2018-02-16T10:18:21.961Z,27.30
2018-02-16T10:20:50.192Z,26.33
2018-02-16T10:23:17.646Z,28.83
2018-02-16T10:25:45.119Z,30.17
2018-02-16T10:28:12.590Z,31.70
2018-02-16T10:30:40.094Z,26.03
2018-02-16T10:33:07.553Z,33.03
2018-02-16T10:35:35.014Z,31.07
2018-02-16T10:38:02.478Z,33.10
2018-02-16T10:40:29.930Z,34.77
2018-02-16T10:42:57.395Z,31.10
2018-02-16T10:45:24.853Z,29.47
2018-02-16T10:47:52.323Z,30.00
2018-02-16T10:50:19.770Z,27.50
2018-02-16T10:52:47.229Z,24.17
2018-02-16T10:55:14.698Z,23.70
2018-02-16T10:57:42.162Z,26.47
2018-02-16T11:00:09.618Z,23.97
2018-02-16T11:02:42.798Z,27.07
2018-02-16T11:05:12.153Z,26.27
2018-02-16T11:07:45.200Z,27.20
2018-02-16T11:10:12.649Z,27.00
2018-02-16T11:12:40.116Z,29.20
2018-02-16T11:15:07.649Z,25.53
2018-02-16T11:17:35.109Z,23.40
2018-02-16T11:20:02.573Z,25.47
2018-02-16T11:22:30.029Z,24.03
2018-02-16T11:24:57.486Z,25.60
2018-02-16T11:27:24.957Z,24.60
2018-02-16T11:29:52.414Z,25.43
2018-02-16T11:32:19.883Z,27.80
2018-02-16T11:34:47.329Z,24.57
2018-02-16T11:37:14.785Z,24.63
2018-02-16T11:39:42.246Z,24.57
2018-02-16T11:42:10.465Z,28.60
2018-02-16T11:44:37.942Z,29.53
2018-02-16T11:47:05.461Z,28.70
2018-02-16T11:49:32.938Z,27.07
2018-02-16T11:52:00.609Z,30.97
2018-02-16T11:54:28.057Z,30.73
2018-02-16T11:56:55.513Z,30.40
2018-02-16T11:59:22.971Z,39.50
2018-02-16T12:01:50.438Z,33.67
2018-02-16T12:04:17.906Z,24.03
2018-02-16T12:06:45.373Z,28.43
2018-02-16T12:09:12.839Z,26.70
2018-02-16T12:11:40.336Z,23.83
2018-02-16T12:14:08.553Z,24.67
2018-02-16T12:16:36.022Z,24.17
2018-02-16T12:19:03.481Z,22.10
2018-02-16T12:21:30.941Z,25.70
2018-02-16T12:23:58.403Z,26.93
2018-02-16T12:26:25.872Z,24.93
2018-02-16T12:28:53.322Z,21.63
2018-02-16T12:31:20.798Z,21.60
2018-02-16T12:33:48.246Z,19.73
2018-02-16T12:36:15.721Z,20.07
2018-02-16T12:38:43.169Z,22.67
2018-02-16T12:41:10.656Z,22.97
2018-02-16T12:43:38.168Z,26.80
2018-02-16T12:46:05.626Z,24.67
2018-02-16T12:48:33.072Z,28.00
2018-02-16T12:51:00.539Z,30.20
2018-02-16T12:53:28.763Z,26.97
2018-02-16T12:55:56.238Z,26.27
2018-02-16T12:58:23.692Z,28.90
2018-02-16T13:00:51.153Z,24.67
2018-02-16T13:03:18.613Z,26.47
2018-02-16T13:05:46.081Z,26.47
2018-02-16T13:08:13.566Z,28.00
2018-02-16T13:10:41.038Z,25.90
2018-02-16T13:13:08.603Z,39.10
2018-02-16T13:15:36.065Z,34.83
2018-02-16T13:18:03.553Z,22.80
2018-02-16T13:20:31.040Z,25.50
2018-02-16T13:22:58.542Z,25.37
2018-02-16T13:25:25.978Z,21.87
2018-02-16T13:27:53.792Z,21.60
2018-02-16T13:30:21.248Z,22.57
2018-02-16T13:32:48.713Z,19.57
2018-02-16T13:35:16.175Z,24.07
2018-02-16T13:37:43.633Z,20.83
2018-02-16T13:40:11.127Z,23.17
2018-02-16T13:42:38.606Z,22.30
2018-02-16T13:45:06.058Z,22.77
2018-02-16T13:47:33.522Z,24.57
2018-02-16T13:50:01.028Z,21.50
2018-02-16T13:52:28.443Z,28.70
2018-02-16T13:54:55.894Z,21.47
2018-02-16T13:57:23.358Z,21.47
2018-02-16T13:59:50.817Z,27.87
2018-02-16T14:02:18.291Z,22.77
2018-02-16T14:04:45.744Z,25.20
2018-02-16T14:07:13.217Z,24.17
2018-02-16T14:09:40.670Z,20.93
2018-02-16T14:12:08.125Z,24.83
2018-02-16T14:14:36.410Z,25.07
2018-02-16T14:17:03.881Z,26.37
2018-02-16T14:19:31.349Z,28.40
2018-02-16T14:21:58.802Z,25.17
2018-02-16T14:24:26.303Z,23.50
2018-02-16T14:26:53.758Z,23.93
2018-02-16T14:29:21.213Z,25.17
2018-02-16T14:31:48.670Z,22.20
2018-02-16T14:34:16.137Z,22.87
2018-02-16T14:36:43.590Z,25.50
2018-02-16T14:39:11.053Z,23.37
2018-02-16T14:41:38.531Z,23.27
2018-02-16T14:44:06.004Z,23.63
2018-02-16T14:46:34.214Z,25.63
2018-02-16T14:49:01.682Z,28.07
2018-02-16T14:51:29.151Z,22.47
2018-02-16T14:53:56.606Z,22.57
2018-02-16T14:56:24.074Z,22.00
2018-02-16T14:58:51.538Z,27.83
2018-02-16T15:01:18.989Z,20.47
2018-02-16T15:03:46.461Z,24.37
2018-02-16T15:06:13.910Z,20.20
2018-02-16T15:08:41.366Z,24.10
2018-02-16T15:11:08.814Z,25.63
2018-02-16T15:13:36.278Z,21.47
2018-02-16T15:16:03.756Z,27.40
2018-02-16T15:18:31.214Z,19.70
2018-02-16T15:20:58.668Z,28.47
2018-02-16T15:23:26.123Z,24.83
2018-02-16T15:25:53.598Z,22.60
2018-02-16T15:28:21.101Z,32.63
2018-02-16T15:30:48.584Z,21.23
2018-02-16T15:33:16.042Z,29.13
2018-02-16T15:35:43.509Z,22.17
2018-02-16T15:38:10.961Z,27.63
2018-02-16T15:40:39.182Z,27.03
2018-02-16T15:43:06.639Z,26.50
2018-02-16T15:45:34.110Z,27.90
2018-02-16T15:48:01.565Z,28.57
2018-02-16T15:50:29.021Z,28.50
2018-02-16T15:52:56.478Z,28.23
2018-02-16T15:55:23.942Z,28.97
2018-02-16T15:57:51.398Z,28.77
2018-02-16T16:00:30.306Z,27.73
2018-02-16T16:03:00.716Z,28.87
2018-02-16T16:05:29.708Z,30.17
2018-02-16T16:07:59.478Z,31.73
2018-02-16T16:10:28.007Z,34.43
2018-02-16T16:12:57.385Z,35.30
2018-02-16T16:15:26.429Z,33.40
2018-02-16T16:17:54.506Z,35.87
2018-02-16T16:20:23.987Z,32.47
2018-02-16T16:22:51.911Z,33.97
2018-02-16T16:25:23.101Z,33.20
2018-02-16T16:27:51.795Z,33.03
2018-02-16T16:30:21.168Z,33.40
2018-02-16T16:32:51.153Z,30.03
2018-02-16T16:35:20.691Z,35.83
2018-02-16T16:37:49.836Z,33.80
2018-02-16T16:40:18.463Z,33.70
2018-02-16T16:42:46.726Z,36.50
2018-02-16T16:45:15.280Z,40.80
2018-02-16T16:47:43.782Z,37.47
2018-02-16T16:50:12.825Z,28.30
2018-02-16T16:52:41.915Z,34.13
2018-02-16T16:55:12.100Z,39.10
2018-02-16T16:57:41.858Z,34.70
2018-02-16T17:00:10.140Z,35.63
2018-02-16T17:02:39.293Z,34.43
2018-02-16T17:05:07.946Z,35.37
2018-02-16T17:07:37.638Z,43.10
2018-02-16T17:10:06.080Z,35.63
2018-02-16T17:12:34.666Z,40.53
2018-02-16T17:15:02.684Z,34.77
2018-02-16T17:17:30.453Z,35.20
2018-02-16T17:19:58.870Z,41.33
2018-02-16T17:22:26.569Z,41.00
2018-02-16T17:24:54.443Z,36.83
2018-02-16T17:27:23.059Z,40.57
2018-02-16T17:29:52.254Z,43.93
2018-02-16T17:32:27.964Z,39.17
2018-02-16T17:34:57.452Z,37.97
2018-02-16T17:37:25.774Z,44.40
2018-02-16T17:39:54.644Z,38.07
2018-02-16T17:42:22.410Z,42.87
2018-02-16T17:44:50.994Z,47.13
2018-02-16T17:47:20.271Z,44.60
2018-02-16T17:49:49.817Z,44.70
2018-02-16T17:52:20.273Z,41.17
2018-02-16T17:54:48.679Z,44.47
2018-02-16T17:57:17.566Z,52.87
2018-02-16T17:59:45.447Z,44.07
2018-02-16T18:02:13.975Z,46.40
2018-02-16T18:04:43.336Z,50.47
2018-02-16T18:07:11.175Z,50.07
2018-02-16T18:09:39.189Z,53.03
2018-02-16T18:12:08.504Z,44.73
2018-02-16T18:14:36.467Z,39.27
2018-02-16T18:17:05.056Z,44.67
2018-02-16T18:19:34.675Z,40.20
2018-02-16T18:22:02.274Z,40.23
2018-02-16T18:24:29.878Z,56.40
2018-02-16T18:26:57.469Z,67.53
2018-02-16T18:29:25.242Z,47.07
2018-02-16T18:31:53.067Z,49.30
2018-02-16T18:34:21.253Z,47.90
2018-02-16T18:36:49.024Z,49.50
2018-02-16T18:39:17.119Z,55.63
2018-02-16T18:41:45.463Z,49.87
2018-02-16T18:44:13.199Z,55.93
2018-02-16T18:46:41.367Z,52.77
2018-02-16T18:49:09.112Z,55.40
2018-02-16T18:51:36.771Z,53.70
2018-02-16T18:54:04.527Z,54.17
2018-02-16T18:56:33.425Z,49.87
2018-02-16T18:59:01.267Z,63.17
2018-02-16T19:01:29.075Z,52.33
2018-02-16T19:03:57.931Z,50.07
2018-02-16T19:06:26.166Z,48.33
2018-02-16T19:08:55.897Z,54.20
2018-02-16T19:11:24.008Z,51.70
2018-02-16T19:13:53.073Z,50.20
2018-02-16T19:16:21.288Z,47.87
2018-02-16T19:18:53.570Z,50.13
2018-02-16T19:21:23.676Z,45.17
2018-02-16T19:23:53.247Z,47.90
2018-02-16T19:26:21.674Z,49.03
2018-02-16T19:28:49.593Z,52.00
2018-02-16T19:31:17.874Z,49.97
2018-02-16T19:33:47.531Z,56.17
2018-02-16T19:36:16.034Z,49.03
2018-02-16T19:38:44.183Z,50.23
2018-02-16T19:41:12.938Z,50.03
2018-02-16T19:43:41.835Z,54.33
2018-02-16T19:46:09.694Z,48.47
2018-02-16T19:48:38.538Z,48.20
2018-02-16T19:51:08.085Z,53.73
2018-02-16T19:53:40.127Z,46.87
2018-02-16T19:56:10.825Z,48.17
2018-02-16T19:58:40.114Z,50.90
2018-02-16T20:01:07.935Z,49.73
2018-02-16T20:03:37.740Z,51.93
2018-02-16T20:06:08.438Z,48.07
2018-02-16T20:08:36.241Z,47.40
2018-02-16T20:11:04.077Z,47.20
2018-02-16T20:13:32.537Z,51.80
2018-02-16T20:16:01.314Z,48.40
2018-02-16T20:18:29.443Z,54.57
2018-02-16T20:20:57.186Z,52.03
2018-02-16T20:23:25.196Z,50.87
2018-02-16T20:25:54.042Z,51.10
2018-02-16T20:28:22.010Z,51.93
2018-02-16T20:30:50.835Z,55.73
2018-02-16T20:33:18.606Z,53.63
2018-02-16T20:35:47.415Z,53.40
2018-02-16T20:38:16.490Z,55.00
2018-02-16T20:40:46.536Z,51.50
2018-02-16T20:43:14.733Z,51.60
2018-02-16T20:45:43.286Z,52.30
2018-02-16T20:48:13.168Z,47.13
2018-02-16T20:50:42.401Z,56.57
2018-02-16T20:53:11.080Z,51.57
2018-02-16T20:55:39.946Z,54.10
2018-02-16T20:58:08.187Z,57.00
2018-02-16T21:00:37.984Z,55.03
2018-02-16T21:03:08.742Z,57.87
2018-02-16T21:05:40.536Z,55.37
2018-02-16T21:08:10.610Z,55.17
2018-02-16T21:10:41.738Z,54.00
2018-02-16T21:13:12.085Z,49.70
2018-02-16T21:15:42.327Z,50.97
2018-02-16T21:18:11.874Z,58.90
2018-02-16T21:20:42.422Z,56.27
2018-02-16T21:23:12.821Z,52.60
2018-02-16T21:25:42.164Z,54.53
2018-02-16T21:28:10.057Z,51.77
2018-02-16T21:30:39.872Z,54.97
2018-02-16T21:33:08.225Z,58.47
2018-02-16T21:35:38.418Z,55.83
2018-02-16T21:38:07.494Z,53.27
2018-02-16T21:40:36.353Z,52.73
2018-02-16T21:43:07.120Z,53.67
2018-02-16T21:45:35.426Z,54.07
2018-02-16T21:48:03.791Z,53.73
2018-02-16T21:50:32.968Z,56.20
2018-02-16T21:53:02.725Z,59.03
2018-02-16T21:55:31.047Z,55.60
2018-02-16T21:58:01.082Z,54.50
2018-02-16T22:00:29.084Z,58.83
2018-02-16T22:02:58.987Z,48.80
2018-02-16T22:05:26.645Z,54.23
2018-02-16T22:07:54.125Z,52.73
2018-02-16T22:10:21.581Z,58.07
2018-02-16T22:12:49.026Z,60.33
2018-02-16T22:15:16.489Z,53.40
2018-02-16T22:17:43.949Z,52.17
2018-02-16T22:20:11.412Z,52.63
2018-02-16T22:22:38.869Z,54.63
2018-02-16T22:25:06.318Z,57.30
2018-02-16T22:27:33.777Z,56.97
2018-02-16T22:30:01.242Z,65.63
2018-02-16T22:32:28.703Z,76.97
2018-02-16T22:34:56.159Z,61.67
2018-02-16T22:37:23.625Z,57.23
2018-02-16T22:39:51.076Z,60.13
2018-02-16T22:42:18.530Z,57.10
2018-02-16T22:44:45.982Z,53.43
2018-02-16T22:47:13.462Z,56.20
2018-02-16T22:49:40.907Z,58.33
2018-02-16T22:52:09.142Z,56.50
2018-02-16T22:54:36.601Z,56.90
2018-02-16T22:57:04.086Z,58.17
2018-02-16T22:59:31.548Z,65.50
2018-02-16T23:01:59.039Z,70.27
2018-02-16T23:04:26.497Z,59.90
2018-02-16T23:06:53.951Z,59.47
2018-02-16T23:09:21.417Z,58.50
2018-02-16T23:11:48.882Z,56.00
2018-02-16T23:14:16.349Z,53.77
2018-02-16T23:16:43.801Z,53.23
2018-02-16T23:19:11.578Z,52.37
2018-02-16T23:21:39.037Z,57.13
2018-02-16T23:24:06.508Z,61.03
2018-02-16T23:26:33.957Z,57.10
2018-02-16T23:29:01.417Z,60.00
2018-02-16T23:31:28.877Z,56.37
2018-02-16T23:33:56.338Z,57.43
2018-02-16T23:36:23.789Z,59.33
2018-02-16T23:38:51.533Z,60.60
2018-02-16T23:41:19.001Z,66.83
2018-02-16T23:43:46.613Z,50.67
2018-02-16T23:46:14.072Z,55.50
2018-02-16T23:48:41.538Z,56.17
2018-02-16T23:51:09.087Z,66.40
2018-02-16T23:53:36.554Z,77.73
2018-02-16T23:56:04.115Z,43.17
2018-02-16T23:58:31.575Z,58.10
